sensor_id;sensor_type;location;lat;lon;timestamp;pressure;altitude;pressure_sealevel;temperature;humidity
13476;BME280;6810;63.824;20.288;2024-01-15T00:00:59;99437.78;;;-10.86;72.62
13476;BME280;6810;63.824;20.288;2024-01-15T00:03:26;99433.47;;;-10.86;72.08
13476;BME280;6810;63.824;20.288;2024-01-15T00:05:53;99436.91;;;-10.85;71.69
13476;BME280;6810;63.824;20.288;2024-01-15T00:08:20;99436.91;;;-10.85;72.01
13476;BME280;6810;63.824;20.288;2024-01-15T00:11:07;99433.47;;;-10.86;72.81
13476;BME280;6810;63.824;20.288;2024-01-15T00:13:54;99436.03;;;-10.86;71.70
13476;BME280;6810;63.824;20.288;2024-01-15T00:16:41;99436.03;;;-10.86;72.50
13476;BME280;6810;63.824;20.288;2024-01-15T00:19:28;99437.78;;;-10.85;71.68
13476;BME280;6810;63.824;20.288;2024-01-15T00:22:15;99438.63;;;-10.84;71.65
13476;BME280;6810;63.824;20.288;2024-01-15T00:25:02;99393.00;;;-11.19;72.53
13476;BME280;6810;63.824;20.288;2024-01-15T00:27:49;99442.94;;;-10.83;72.23
13476;BME280;6810;63.824;20.288;2024-01-15T00:30:36;99442.94;;;-10.83;71.98
13476;BME280;6810;63.824;20.288;2024-01-15T00:33:04;99441.19;;;-10.83;71.74
13476;BME280;6810;63.824;20.288;2024-01-15T00:35:51;99448.09;;;-10.82;71.99
13476;BME280;6810;63.824;20.288;2024-01-15T00:38:38;99436.06;;;-10.81;71.73
13476;BME280;6810;63.824;20.288;2024-01-15T00:41:05;99436.94;;;-10.79;71.70
13476;BME280;6810;63.824;20.288;2024-01-15T00:43:51;99436.06;;;-10.78;72.28
13476;BME280;6810;63.824;20.288;2024-01-15T00:46:43;99388.75;;;-11.11;71.74
13476;BME280;6810;63.824;20.288;2024-01-15T00:49:30;99434.38;;;-10.76;71.70
13476;BME280;6810;63.824;20.288;2024-01-15T00:52:17;99443.81;;;-10.75;72.64
13476;BME280;6810;63.824;20.288;2024-01-15T00:55:05;99438.66;;;-10.74;71.66
13476;BME280;6810;63.824;20.288;2024-01-15T00:57:51;99433.53;;;-10.74;71.83
13476;BME280;6810;63.824;20.288;2024-01-15T01:00:38;99428.38;;;-10.77;72.07
13476;BME280;6810;63.824;20.288;2024-01-15T01:03:25;99434.41;;;-10.72;71.66
13476;BME280;6810;63.824;20.288;2024-01-15T01:06:12;99439.56;;;-10.69;72.61
13476;BME280;6810;63.824;20.288;2024-01-15T01:09:00;99424.13;;;-10.70;72.55
13476;BME280;6810;63.824;20.288;2024-01-15T01:11:47;99432.72;;;-10.67;72.38
13476;BME280;6810;63.824;20.288;2024-01-15T01:14:34;99435.28;;;-10.67;71.70
13476;BME280;6810;63.824;20.288;2024-01-15T01:17:21;99445.59;;;-10.64;72.63
13476;BME280;6810;63.824;20.288;2024-01-15T01:20:08;99434.44;;;-10.63;72.59
13476;BME280;6810;63.824;20.288;2024-01-15T01:22:56;99423.25;;;-10.71;71.95
13476;BME280;6810;63.824;20.288;2024-01-15T01:25:42;99425.88;;;-10.60;72.66
13476;BME280;6810;63.824;20.288;2024-01-15T01:28:29;99413.00;;;-10.62;71.68
13476;BME280;6810;63.824;20.288;2024-01-15T01:31:16;99425.91;;;-10.57;71.95
13476;BME280;6810;63.824;20.288;2024-01-15T01:34:00;99413.06;;;-10.57;72.58
13476;BME280;6810;63.824;20.288;2024-01-15T01:36:27;99415.63;;;-10.57;72.52
13476;BME280;6810;63.824;20.288;2024-01-15T01:38:54;99422.50;;;-10.53;71.84
13476;BME280;6810;63.824;20.288;2024-01-15T01:41:41;99415.63;;;-10.53;71.78
13476;BME280;6810;63.824;20.288;2024-01-15T01:44:27;99411.34;;;-10.51;72.31
13476;BME280;6810;63.824;20.288;2024-01-15T01:47:14;99418.22;;;-10.51;71.97
13476;BME280;6810;63.824;20.288;2024-01-15T01:50:02;99421.63;;;-10.48;72.70
13476;BME280;6810;63.824;20.288;2024-01-15T01:52:50;99419.06;;;-10.46;72.00
13476;BME280;6810;63.824;20.288;2024-01-15T01:55:38;99419.09;;;-10.43;71.78
13476;BME280;6810;63.824;20.288;2024-01-15T01:58:25;99418.25;;;-10.42;72.60
13476;BME280;6810;63.824;20.288;2024-01-15T02:01:12;99415.69;;;-10.41;72.53
13476;BME280;6810;63.824;20.288;2024-01-15T02:03:59;99413.94;;;-10.39;71.91
13476;BME280;6810;63.824;20.288;2024-01-15T02:06:48;99411.38;;;-10.39;72.61
13476;BME280;6810;63.824;20.288;2024-01-15T02:09:35;99410.56;;;-10.36;72.71
13476;BME280;6810;63.824;20.288;2024-01-15T02:12:22;99407.09;;;-10.35;72.38
13476;BME280;6810;63.824;20.288;2024-01-15T02:15:09;99404.53;;;-10.34;72.01
13476;BME280;6810;63.824;20.288;2024-01-15T02:18:04;99410.56;;;-10.32;72.17
13476;BME280;6810;63.824;20.288;2024-01-15T02:20:51;99399.41;;;-10.31;72.03
13476;BME280;6810;63.824;20.288;2024-01-15T02:23:59;99407.13;;;-10.29;72.74
13476;BME280;6810;63.824;20.288;2024-01-15T02:26:26;99413.97;;;-10.28;72.69
13476;BME280;6810;63.824;20.288;2024-01-15T02:29:13;99412.28;;;-10.26;71.69
13476;BME280;6810;63.824;20.288;2024-01-15T02:32:04;99413.16;;;-10.24;72.25
13476;BME280;6810;63.824;20.288;2024-01-15T02:34:51;99417.44;;;-10.22;72.56
13476;BME280;6810;63.824;20.288;2024-01-15T02:37:38;99419.19;;;-10.19;72.62
13476;BME280;6810;63.824;20.288;2024-01-15T02:40:25;99411.44;;;-10.24;72.40
13476;BME280;6810;63.824;20.288;2024-01-15T02:42:52;99413.19;;;-10.15;72.60
13476;BME280;6810;63.824;20.288;2024-01-15T02:45:19;99423.47;;;-10.14;72.61
13476;BME280;6810;63.824;20.288;2024-01-15T02:47:47;99418.34;;;-10.12;72.07
13476;BME280;6810;63.824;20.288;2024-01-15T02:50:34;99428.63;;;-10.11;72.28
13476;BME280;6810;63.824;20.288;2024-01-15T02:53:21;99428.66;;;-10.08;72.64
13476;BME280;6810;63.824;20.288;2024-01-15T02:56:08;99419.19;;;-10.06;72.23
13476;BME280;6810;63.824;20.288;2024-01-15T02:58:54;99420.91;;;-10.05;72.85
13476;BME280;6810;63.824;20.288;2024-01-15T03:01:41;99411.47;;;-10.04;72.23
13476;BME280;6810;63.824;20.288;2024-01-15T03:04:28;99415.75;;;-10.00;71.88
13476;BME280;6810;63.824;20.288;2024-01-15T03:07:15;99420.91;;;-9.99;72.65
13476;BME280;6810;63.824;20.288;2024-01-15T03:10:02;99415.75;;;-9.97;72.20
13476;BME280;6810;63.824;20.288;2024-01-15T03:12:49;99414.06;;;-9.95;72.12
13476;BME280;6810;63.824;20.288;2024-01-15T03:15:36;99414.94;;;-9.93;72.18
13476;BME280;6810;63.824;20.288;2024-01-15T03:18:23;99411.47;;;-9.92;72.63
13476;BME280;6810;63.824;20.288;2024-01-15T03:21:10;99423.50;;;-9.90;72.40
13476;BME280;6810;63.824;20.288;2024-01-15T03:23:57;99414.94;;;-9.89;72.87
13476;BME280;6810;63.824;20.288;2024-01-15T03:26:44;99418.34;;;-9.88;72.04
13476;BME280;6810;63.824;20.288;2024-01-15T03:29:31;99418.34;;;-9.85;72.35
13476;BME280;6810;63.824;20.288;2024-01-15T03:32:18;99421.78;;;-9.85;71.98
13476;BME280;6810;63.824;20.288;2024-01-15T03:35:05;99417.50;;;-9.86;72.42
13476;BME280;6810;63.824;20.288;2024-01-15T03:37:52;99424.38;;;-9.82;72.29
13476;BME280;6810;63.824;20.288;2024-01-15T03:40:39;99418.34;;;-9.82;72.41
13476;BME280;6810;63.824;20.288;2024-01-15T03:43:27;99419.22;;;-9.80;71.92
13476;BME280;6810;63.824;20.288;2024-01-15T03:46:14;99421.81;;;-9.79;72.93
13476;BME280;6810;63.824;20.288;2024-01-15T03:49:00;99419.22;;;-9.79;72.53
13476;BME280;6810;63.824;20.288;2024-01-15T03:51:47;99414.94;;;-9.77;72.63
13476;BME280;6810;63.824;20.288;2024-01-15T03:54:34;99415.78;;;-9.76;72.71
13476;BME280;6810;63.824;20.288;2024-01-15T03:57:21;99413.22;;;-9.75;72.68
13476;BME280;6810;63.824;20.288;2024-01-15T04:00:09;99414.94;;;-9.78;73.00
13476;BME280;6810;63.824;20.288;2024-01-15T04:02:56;99412.38;;;-9.72;72.79
13476;BME280;6810;63.824;20.288;2024-01-15T04:05:43;99411.50;;;-9.71;72.13
13476;BME280;6810;63.824;20.288;2024-01-15T04:08:30;99415.78;;;-9.70;72.67
13476;BME280;6810;63.824;20.288;2024-01-15T04:10:57;99402.91;;;-9.72;72.64
13476;BME280;6810;63.824;20.288;2024-01-15T04:13:24;99407.22;;;-9.69;72.66
13476;BME280;6810;63.824;20.288;2024-01-15T04:15:51;99413.22;;;-9.69;72.79
13476;BME280;6810;63.824;20.288;2024-01-15T04:18:38;99406.34;;;-9.68;72.32
13476;BME280;6810;63.824;20.288;2024-01-15T04:21:06;99405.47;;;-9.66;73.05
13476;BME280;6810;63.824;20.288;2024-01-15T04:23:53;99396.03;;;-9.65;72.98
13476;BME280;6810;63.824;20.288;2024-01-15T04:26:40;99396.91;;;-9.65;72.76
13476;BME280;6810;63.824;20.288;2024-01-15T04:29:27;99398.63;;;-9.67;72.17
13476;BME280;6810;63.824;20.288;2024-01-15T04:32:13;99390.88;;;-9.68;72.05
13476;BME280;6810;63.824;20.288;2024-01-15T04:35:00;99398.63;;;-9.70;72.23
13476;BME280;6810;63.824;20.288;2024-01-15T04:37:27;99403.78;;;-9.71;72.99
13476;BME280;6810;63.824;20.288;2024-01-15T04:39:54;99396.91;;;-9.72;72.74
13476;BME280;6810;63.824;20.288;2024-01-15T04:42:22;99392.59;;;-9.76;72.57
13476;BME280;6810;63.824;20.288;2024-01-15T04:44:49;99395.16;;;-9.75;72.38
13476;BME280;6810;63.824;20.288;2024-01-15T04:47:16;99393.47;;;-9.77;72.54
13476;BME280;6810;63.824;20.288;2024-01-15T04:49:43;99396.91;;;-9.78;72.86
13476;BME280;6810;63.824;20.288;2024-01-15T04:52:10;99401.19;;;-9.79;72.21
13476;BME280;6810;63.824;20.288;2024-01-15T04:54:37;99394.34;;;-9.84;72.32
13476;BME280;6810;63.824;20.288;2024-01-15T04:57:24;99399.47;;;-9.84;72.31
13476;BME280;6810;63.824;20.288;2024-01-15T05:00:11;99402.06;;;-9.86;72.07
13476;BME280;6810;63.824;20.288;2024-01-15T05:02:58;99396.91;;;-9.90;72.99
13476;BME280;6810;63.824;20.288;2024-01-15T05:05:45;99398.59;;;-9.91;72.39
13476;BME280;6810;63.824;20.288;2024-01-15T05:08:12;99403.75;;;-9.94;71.97
13476;BME280;6810;63.824;20.288;2024-01-15T05:10:59;99400.31;;;-9.97;72.27
13476;BME280;6810;63.824;20.288;2024-01-15T05:13:46;99396.84;;;-10.01;72.10
13476;BME280;6810;63.824;20.288;2024-01-15T05:16:33;99408.03;;;-10.03;72.67
13476;BME280;6810;63.824;20.288;2024-01-15T05:19:20;99411.50;;;-10.09;71.91
13476;BME280;6810;63.824;20.288;2024-01-15T05:22:07;99405.47;;;-10.12;72.14
13476;BME280;6810;63.824;20.288;2024-01-15T05:24:54;99415.75;;;-10.15;72.70
13476;BME280;6810;63.824;20.288;2024-01-15T05:27:41;99414.03;;;-10.19;71.86
13476;BME280;6810;63.824;20.288;2024-01-15T05:30:28;99414.88;;;-10.23;71.92
13476;BME280;6810;63.824;20.288;2024-01-15T05:33:15;99426.91;;;-10.25;72.82
13476;BME280;6810;63.824;20.288;2024-01-15T05:36:02;99407.09;;;-10.40;72.62
13476;BME280;6810;63.824;20.288;2024-01-15T05:38:49;99416.53;;;-10.33;71.88
13476;BME280;6810;63.824;20.288;2024-01-15T05:41:36;99421.69;;;-10.37;71.91
13476;BME280;6810;63.824;20.288;2024-01-15T05:44:23;99426.81;;;-10.39;72.02
13476;BME280;6810;63.824;20.288;2024-01-15T05:47:09;99431.13;;;-10.42;72.37
13476;BME280;6810;63.824;20.288;2024-01-15T05:49:57;99430.25;;;-10.44;72.80
13476;BME280;6810;63.824;20.288;2024-01-15T05:52:44;99396.72;;;-10.65;72.40
13476;BME280;6810;63.824;20.288;2024-01-15T05:55:30;99427.63;;;-10.53;71.89
13476;BME280;6810;63.824;20.288;2024-01-15T05:58:17;99420.78;;;-10.54;71.92
13476;BME280;6810;63.824;20.288;2024-01-15T06:01:04;99429.31;;;-10.58;72.82
13476;BME280;6810;63.824;20.288;2024-01-15T06:03:52;99433.56;;;-10.63;72.11
13476;BME280;6810;63.824;20.288;2024-01-15T06:06:39;99431.00;;;-10.66;72.42
13476;BME280;6810;63.824;20.288;2024-01-15T06:09:26;99436.97;;;-10.70;71.75
13476;BME280;6810;63.824;20.288;2024-01-15T06:12:13;99434.38;;;-10.75;71.81
13476;BME280;6810;63.824;20.288;2024-01-15T06:15:00;99410.25;;;-10.98;71.79
13476;BME280;6810;63.824;20.288;2024-01-15T06:17:47;99437.78;;;-10.83;72.67
13476;BME280;6810;63.824;20.288;2024-01-15T06:20:34;99435.19;;;-10.86;72.26
13476;BME280;6810;63.824;20.288;2024-01-15T06:23:21;99404.16;;;-11.12;72.00
13476;BME280;6810;63.824;20.288;2024-01-15T06:25:48;99413.59;;;-11.14;72.52
13476;BME280;6810;63.824;20.288;2024-01-15T06:28:35;99443.66;;;-11.00;72.65
13476;BME280;6810;63.824;20.288;2024-01-15T06:31:22;99442.78;;;-11.05;71.64
13476;BME280;6810;63.824;20.288;2024-01-15T06:34:09;99436.75;;;-11.10;72.28
13476;BME280;6810;63.824;20.288;2024-01-15T06:36:56;99450.44;;;-11.14;71.97
13476;BME280;6810;63.824;20.288;2024-01-15T06:39:43;99445.25;;;-11.20;71.69
13476;BME280;6810;63.824;20.288;2024-01-15T06:42:30;99448.66;;;-11.22;72.55
13476;BME280;6810;63.824;20.288;2024-01-15T06:45:17;99440.06;;;-11.27;72.22
13476;BME280;6810;63.824;20.288;2024-01-15T06:47:52;99439.16;;;-11.31;72.06
13476;BME280;6810;63.824;20.288;2024-01-15T06:50:39;99441.69;;;-11.35;72.31
13476;BME280;6810;63.824;20.288;2024-01-15T06:53:26;99450.25;;;-11.36;72.54
13476;BME280;6810;63.824;20.288;2024-01-15T06:56:12;99446.81;;;-11.40;71.66
13476;BME280;6810;63.824;20.288;2024-01-15T06:58:59;99444.19;;;-11.46;72.03
13476;BME280;6810;63.824;20.288;2024-01-15T07:01:46;99452.75;;;-11.47;72.49
13476;BME280;6810;63.824;20.288;2024-01-15T07:04:33;99453.59;;;-11.51;72.25
13476;BME280;6810;63.824;20.288;2024-01-15T07:07:20;99466.41;;;-11.52;71.93
13476;BME280;6810;63.824;20.288;2024-01-15T07:10:07;99467.22;;;-11.56;71.84
13476;BME280;6810;63.824;20.288;2024-01-15T07:12:54;99472.34;;;-11.59;71.93
13476;BME280;6810;63.824;20.288;2024-01-15T07:15:41;99457.69;;;-11.74;72.45
13476;BME280;6810;63.824;20.288;2024-01-15T07:18:28;99478.31;;;-11.66;72.05
13476;BME280;6810;63.824;20.288;2024-01-15T07:21:15;99477.41;;;-11.71;71.68
13476;BME280;6810;63.824;20.288;2024-01-15T07:24:02;99482.50;;;-11.73;72.14
13476;BME280;6810;63.824;20.288;2024-01-15T07:26:49;99491.88;;;-11.76;71.56
13476;BME280;6810;63.824;20.288;2024-01-15T07:29:36;99485.00;;;-11.82;72.17
13476;BME280;6810;63.824;20.288;2024-01-15T07:32:28;99486.66;;;-11.85;71.63
13476;BME280;6810;63.824;20.288;2024-01-15T07:35:15;99490.06;;;-11.88;72.29
13476;BME280;6810;63.824;20.288;2024-01-15T07:37:42;99490.03;;;-11.91;71.94
13476;BME280;6810;63.824;20.288;2024-01-15T07:40:29;99489.13;;;-11.96;71.41
13476;BME280;6810;63.824;20.288;2024-01-15T07:43:16;99495.91;;;-11.99;72.19
13476;BME280;6810;63.824;20.288;2024-01-15T07:45:44;99501.91;;;-12.00;71.80
13476;BME280;6810;63.824;20.288;2024-01-15T07:48:12;99498.44;;;-12.02;72.24
13476;BME280;6810;63.824;20.288;2024-01-15T07:50:39;99496.72;;;-12.05;72.12
13476;BME280;6810;63.824;20.288;2024-01-15T07:53:06;99492.41;;;-12.09;72.05
13476;BME280;6810;63.824;20.288;2024-01-15T07:55:53;99494.09;;;-12.11;72.21
13476;BME280;6810;63.824;20.288;2024-01-15T07:58:36;99499.19;;;-12.14;71.65
13476;BME280;6810;63.824;20.288;2024-01-15T08:01:03;99502.56;;;-12.18;71.78
13476;BME280;6810;63.824;20.288;2024-01-15T08:03:31;99503.41;;;-12.19;72.29
13476;BME280;6810;63.824;20.288;2024-01-15T08:06:18;99497.34;;;-12.22;71.82
13476;BME280;6810;63.824;20.288;2024-01-15T08:09:05;99448.25;;;-12.52;71.95
13476;BME280;6810;63.824;20.288;2024-01-15T08:11:52;99501.59;;;-12.27;72.33
13476;BME280;6810;63.824;20.288;2024-01-15T08:14:40;99497.28;;;-12.28;72.10
13476;BME280;6810;63.824;20.288;2024-01-15T08:17:26;99504.16;;;-12.27;72.29
13476;BME280;6810;63.824;20.288;2024-01-15T08:20:13;99501.59;;;-12.29;71.77
13476;BME280;6810;63.824;20.288;2024-01-15T08:23:00;99486.06;;;-12.38;71.62
13476;BME280;6810;63.824;20.288;2024-01-15T08:25:47;99481.81;;;-12.36;72.07
13476;BME280;6810;63.824;20.288;2024-01-15T08:28:34;99492.97;;;-12.32;71.64
13476;BME280;6810;63.824;20.288;2024-01-15T08:31:21;99498.97;;;-12.33;71.57
13476;BME280;6810;63.824;20.288;2024-01-15T08:33:49;99500.66;;;-12.32;72.34
13476;BME280;6810;63.824;20.288;2024-01-15T08:36:37;99492.13;;;-12.31;71.64
13476;BME280;6810;63.824;20.288;2024-01-15T08:39:23;99495.53;;;-12.32;71.65
13476;BME280;6810;63.824;20.288;2024-01-15T08:42:10;99501.53;;;-12.32;71.81
13476;BME280;6810;63.824;20.288;2024-01-15T08:44:57;99496.44;;;-12.29;71.90
13476;BME280;6810;63.824;20.288;2024-01-15T08:47:44;99491.28;;;-12.32;72.09
13476;BME280;6810;63.824;20.288;2024-01-15T08:50:32;99502.41;;;-12.28;72.05
13476;BME280;6810;63.824;20.288;2024-01-15T08:53:19;99496.44;;;-12.30;72.29
13476;BME280;6810;63.824;20.288;2024-01-15T08:56:06;99493.88;;;-12.30;72.17
13476;BME280;6810;63.824;20.288;2024-01-15T08:58:53;99505.00;;;-12.27;72.10
13476;BME280;6810;63.824;20.288;2024-01-15T09:01:40;99492.19;;;-12.25;72.17
13476;BME280;6810;63.824;20.288;2024-01-15T09:04:27;99498.19;;;-12.25;72.19
13476;BME280;6810;63.824;20.288;2024-01-15T09:07:14;99497.34;;;-12.22;72.17
13476;BME280;6810;63.824;20.288;2024-01-15T09:10:00;99491.41;;;-12.21;72.34
13476;BME280;6810;63.824;20.288;2024-01-15T09:12:47;99492.22;;;-12.22;71.63
13476;BME280;6810;63.824;20.288;2024-01-15T09:15:34;99504.25;;;-12.20;71.75
13476;BME280;6810;63.824;20.288;2024-01-15T09:18:22;99501.69;;;-12.18;71.38
13476;BME280;6810;63.824;20.288;2024-01-15T09:21:09;99505.16;;;-12.18;71.57
13476;BME280;6810;63.824;20.288;2024-01-15T09:23:56;99508.56;;;-12.17;71.39
13476;BME280;6810;63.824;20.288;2024-01-15T09:26:53;99506.84;;;-12.18;71.51
13476;BME280;6810;63.824;20.288;2024-01-15T09:29:41;99513.69;;;-12.16;71.67
13476;BME280;6810;63.824;20.288;2024-01-15T09:32:28;99516.28;;;-12.14;72.30
13476;BME280;6810;63.824;20.288;2024-01-15T09:35:15;99512.03;;;-12.12;72.15
13476;BME280;6810;63.824;20.288;2024-01-15T09:38:02;99517.16;;;-12.12;71.94
13476;BME280;6810;63.824;20.288;2024-01-15T09:40:49;99515.50;;;-12.10;71.57
13476;BME280;6810;63.824;20.288;2024-01-15T09:43:37;99518.91;;;-12.10;71.39
13476;BME280;6810;63.824;20.288;2024-01-15T09:46:24;99505.19;;;-12.15;72.10
13476;BME280;6810;63.824;20.288;2024-01-15T09:49:11;99514.63;;;-12.11;71.59
13476;BME280;6810;63.824;20.288;2024-01-15T09:51:59;99516.31;;;-12.13;72.10
13476;BME280;6810;63.824;20.288;2024-01-15T09:54:48;99521.41;;;-12.14;71.68
13476;BME280;6810;63.824;20.288;2024-01-15T09:57:36;99521.41;;;-12.16;71.37
13476;BME280;6810;63.824;20.288;2024-01-15T10:00:23;99523.94;;;-12.17;71.86
13476;BME280;6810;63.824;20.288;2024-01-15T10:03:12;99528.25;;;-12.18;71.91
13476;BME280;6810;63.824;20.288;2024-01-15T10:05:59;99493.75;;;-12.39;71.90
13476;BME280;6810;63.824;20.288;2024-01-15T10:08:50;99528.16;;;-12.21;71.59
13476;BME280;6810;63.824;20.288;2024-01-15T10:11:37;99535.88;;;-12.21;71.68
13476;BME280;6810;63.824;20.288;2024-01-15T10:14:24;99532.47;;;-12.21;72.01
13476;BME280;6810;63.824;20.288;2024-01-15T10:17:12;99538.41;;;-12.22;71.74
13476;BME280;6810;63.824;20.288;2024-01-15T10:19:59;99528.94;;;-12.28;71.63
13476;BME280;6810;63.824;20.288;2024-01-15T10:22:46;99522.97;;;-12.27;71.43
13476;BME280;6810;63.824;20.288;2024-01-15T10:25:29;99534.13;;;-12.25;71.61
13476;BME280;6810;63.824;20.288;2024-01-15T10:28:02;99520.41;;;-12.25;71.56
13476;BME280;6810;63.824;20.288;2024-01-15T10:30:30;99519.59;;;-12.26;71.80
13476;BME280;6810;63.824;20.288;2024-01-15T10:33:02;99501.41;;;-12.42;71.44
13476;BME280;6810;63.824;20.288;2024-01-15T10:35:50;99530.66;;;-12.27;72.01
13476;BME280;6810;63.824;20.288;2024-01-15T10:38:37;99537.53;;;-12.26;71.76
13476;BME280;6810;63.824;20.288;2024-01-15T10:41:24;99538.38;;;-12.27;71.29
13476;BME280;6810;63.824;20.288;2024-01-15T10:44:11;99532.41;;;-12.26;72.08
13476;BME280;6810;63.824;20.288;2024-01-15T10:46:58;99537.53;;;-12.27;71.89
13476;BME280;6810;63.824;20.288;2024-01-15T10:49:45;99527.16;;;-12.35;71.20
13476;BME280;6810;63.824;20.288;2024-01-15T10:52:33;99536.63;;;-12.29;71.54
13476;BME280;6810;63.824;20.288;2024-01-15T10:55:21;99535.78;;;-12.27;71.33
13476;BME280;6810;63.824;20.288;2024-01-15T10:57:49;99534.97;;;-12.27;71.67
13476;BME280;6810;63.824;20.288;2024-01-15T11:00:17;99539.22;;;-12.28;71.79
13476;BME280;6810;63.824;20.288;2024-01-15T11:03:07;99535.75;;;-12.30;71.88
13476;BME280;6810;63.824;20.288;2024-01-15T11:05:54;99540.88;;;-12.30;71.94
13476;BME280;6810;63.824;20.288;2024-01-15T11:08:42;99514.25;;;-12.41;71.55
13476;BME280;6810;63.824;20.288;2024-01-15T11:11:29;99537.47;;;-12.30;71.23
13476;BME280;6810;63.824;20.288;2024-01-15T11:17:21;99540.03;;;-12.30;72.04
13476;BME280;6810;63.824;20.288;2024-01-15T11:20:08;99541.75;;;-12.29;71.33
13476;BME280;6810;63.824;20.288;2024-01-15T11:22:58;99543.44;;;-12.31;71.61
13476;BME280;6810;63.824;20.288;2024-01-15T11:25:45;99540.03;;;-12.32;71.88
13476;BME280;6810;63.824;20.288;2024-01-15T11:28:48;99533.16;;;-12.33;71.70
13476;BME280;6810;63.824;20.288;2024-01-15T11:31:15;99543.41;;;-12.33;71.80
13476;BME280;6810;63.824;20.288;2024-01-15T11:33:49;99536.56;;;-12.35;71.39
13476;BME280;6810;63.824;20.288;2024-01-15T11:42:22;99540.84;;;-12.34;71.89
13476;BME280;6810;63.824;20.288;2024-01-15T11:45:09;99537.41;;;-12.36;71.40
13476;BME280;6810;63.824;20.288;2024-01-15T11:50:35;99536.56;;;-12.34;71.31
13476;BME280;6810;63.824;20.288;2024-01-15T11:53:36;99534.84;;;-12.35;71.07
13476;BME280;6810;63.824;20.288;2024-01-15T11:56:23;99534.84;;;-12.35;71.32
13476;BME280;6810;63.824;20.288;2024-01-15T11:59:10;99532.28;;;-12.35;71.46
13476;BME280;6810;63.824;20.288;2024-01-15T12:01:57;99526.28;;;-12.37;71.85
13476;BME280;6810;63.824;20.288;2024-01-15T12:04:25;99527.16;;;-12.36;71.31
13476;BME280;6810;63.824;20.288;2024-01-15T12:07:11;99533.09;;;-12.37;71.14
13476;BME280;6810;63.824;20.288;2024-01-15T12:09:58;99531.41;;;-12.35;71.18
13476;BME280;6810;63.824;20.288;2024-01-15T12:15:57;99529.69;;;-12.38;71.27
13476;BME280;6810;63.824;20.288;2024-01-15T12:18:44;99527.16;;;-12.36;71.62
13476;BME280;6810;63.824;20.288;2024-01-15T12:21:31;99515.03;;;-12.45;71.54
13476;BME280;6810;63.824;20.288;2024-01-15T12:24:18;99532.25;;;-12.38;71.14
13476;BME280;6810;63.824;20.288;2024-01-15T12:27:05;99531.38;;;-12.38;71.13
13476;BME280;6810;63.824;20.288;2024-01-15T12:29:55;99521.97;;;-12.41;71.23
13476;BME280;6810;63.824;20.288;2024-01-15T12:32:42;99521.09;;;-12.40;71.47
13476;BME280;6810;63.824;20.288;2024-01-15T12:35:29;99477.09;;;-12.71;71.68
13476;BME280;6810;63.824;20.288;2024-01-15T12:38:19;99522.78;;;-12.42;71.60
13476;BME280;6810;63.824;20.288;2024-01-15T12:41:05;99530.47;;;-12.42;70.98
13476;BME280;6810;63.824;20.288;2024-01-15T12:43:52;99529.63;;;-12.44;71.55
13476;BME280;6810;63.824;20.288;2024-01-15T12:46:39;99529.63;;;-12.44;71.24
13476;BME280;6810;63.824;20.288;2024-01-15T12:49:26;99530.44;;;-12.45;71.21
13476;BME280;6810;63.824;20.288;2024-01-15T12:52:14;99527.03;;;-12.45;71.53
13476;BME280;6810;63.824;20.288;2024-01-15T12:55:01;99529.56;;;-12.47;71.81
13476;BME280;6810;63.824;20.288;2024-01-15T12:57:49;99502.78;;;-12.68;71.17
13476;BME280;6810;63.824;20.288;2024-01-15T13:00:36;99545.78;;;-12.48;71.40
13476;BME280;6810;63.824;20.288;2024-01-15T13:03:23;99549.19;;;-12.49;71.71
13476;BME280;6810;63.824;20.288;2024-01-15T13:06:10;99538.91;;;-12.50;71.28
13476;BME280;6810;63.824;20.288;2024-01-15T13:08:57;99540.63;;;-12.51;71.02
13476;BME280;6810;63.824;20.288;2024-01-15T13:11:45;99544.03;;;-12.52;71.53
13476;BME280;6810;63.824;20.288;2024-01-15T13:14:32;99544.84;;;-12.53;71.50
13476;BME280;6810;63.824;20.288;2024-01-15T13:17:19;99551.72;;;-12.52;71.08
13476;BME280;6810;63.824;20.288;2024-01-15T13:19:47;99552.53;;;-12.53;71.70
13476;BME280;6810;63.824;20.288;2024-01-15T13:22:34;99553.41;;;-12.54;71.79
13476;BME280;6810;63.824;20.288;2024-01-15T13:25:21;99555.09;;;-12.54;71.09
13476;BME280;6810;63.824;20.288;2024-01-15T13:28:08;99547.41;;;-12.54;71.67
13476;BME280;6810;63.824;20.288;2024-01-15T13:30:55;99543.97;;;-12.56;70.99
13476;BME280;6810;63.824;20.288;2024-01-15T13:33:42;99555.06;;;-12.56;71.22
13476;BME280;6810;63.824;20.288;2024-01-15T13:36:29;99551.66;;;-12.58;71.39
13476;BME280;6810;63.824;20.288;2024-01-15T13:39:16;99563.63;;;-12.57;70.99
13476;BME280;6810;63.824;20.288;2024-01-15T13:42:03;99556.78;;;-12.58;71.17
13476;BME280;6810;63.824;20.288;2024-01-15T13:44:50;99552.47;;;-12.57;71.63
13476;BME280;6810;63.824;20.288;2024-01-15T13:47:37;99557.59;;;-12.59;71.83
13476;BME280;6810;63.824;20.288;2024-01-15T13:50:24;99548.97;;;-12.65;71.61
13476;BME280;6810;63.824;20.288;2024-01-15T13:53:11;99566.13;;;-12.61;71.59
13476;BME280;6810;63.824;20.288;2024-01-15T13:55:58;99566.97;;;-12.62;71.47
13476;BME280;6810;63.824;20.288;2024-01-15T13:58:47;99577.22;;;-12.62;71.53
13476;BME280;6810;63.824;20.288;2024-01-15T14:01:34;99564.38;;;-12.64;71.43
13476;BME280;6810;63.824;20.288;2024-01-15T14:04:20;99566.88;;;-12.68;71.00
13476;BME280;6810;63.824;20.288;2024-01-15T14:07:07;99567.72;;;-12.68;70.87
13476;BME280;6810;63.824;20.288;2024-01-15T14:09:54;99567.72;;;-12.68;71.45
13476;BME280;6810;63.824;20.288;2024-01-15T14:12:41;99565.97;;;-12.70;71.76
13476;BME280;6810;63.824;20.288;2024-01-15T14:15:28;99563.38;;;-12.73;71.21
13476;BME280;6810;63.824;20.288;2024-01-15T14:18:16;99560.69;;;-12.81;71.62
13476;BME280;6810;63.824;20.288;2024-01-15T14:21:03;99522.75;;;-13.05;70.85
13476;BME280;6810;63.824;20.288;2024-01-15T14:23:50;99561.63;;;-12.77;71.22
13476;BME280;6810;63.824;20.288;2024-01-15T14:26:37;99569.28;;;-12.79;71.05
13476;BME280;6810;63.824;20.288;2024-01-15T14:29:24;99572.66;;;-12.80;70.94
13476;BME280;6810;63.824;20.288;2024-01-15T14:32:11;99555.38;;;-12.93;71.19
13476;BME280;6810;63.824;20.288;2024-01-15T14:34:58;99570.03;;;-12.85;71.42
13476;BME280;6810;63.824;20.288;2024-01-15T14:37:45;99572.56;;;-12.86;70.86